Time;durP1;ratioP1;P1;durP2;ratioP2;P2;SDS_P1;SDS_P2;PMS_P1;PMS_P2;Temp;Humidity;BMP_temperature;BMP_pressure;BME280_temperature;BME280_humidity;BME280_pressure;Samples;Min_cycle;Max_cycle;Signal;HPM_P1;HPM_P2
2022/10/08 00:01:54;;;;;;;6.05;1.95;;;;;;;;;;5112229;28;20047;-62
2022/10/08 00:04:24;;;;;;;4.70;1.80;;;;;;;;;;5076313;28;20047;-62
2022/10/08 00:06:54;;;;;;;4.10;2.38;;;;;;;;;;5111944;28;20410;-62
2022/10/08 00:09:24;;;;;;;5.43;2.35;;;;;;;;;;5069153;28;20052;-62
2022/10/08 00:11:54;;;;;;;6.53;2.00;;;;;;;;;;5030107;28;20052;-64
2022/10/08 00:14:24;;;;;;;8.43;2.47;;;;;;;;;;5032793;28;20060;-64
2022/10/08 00:16:55;;;;;;;6.07;1.85;;;;;;;;;;4984066;28;20062;-65
2022/10/08 00:19:25;;;;;;;4.35;1.83;;;;;;;;;;5032724;28;20037;-64
2022/10/08 00:21:56;;;;;;;4.13;1.92;;;;;;;;;;5016126;28;20060;-64
2022/10/08 00:24:27;;;;;;;7.82;2.35;;;;;;;;;;5032361;28;20041;-63
2022/10/08 00:26:59;;;;;;;6.97;2.60;;;;;;;;;;5015774;28;20536;-64
2022/10/08 00:29:29;;;;;;;6.25;2.60;;;;;;;;;;4992915;28;20556;-64
2022/10/08 00:31:59;;;;;;;9.30;2.45;;;;;;;;;;4993028;28;20051;-64
2022/10/08 00:34:29;;;;;;;10.85;2.88;;;;;;;;;;4993186;28;20069;-64
2022/10/08 00:37:00;;;;;;;6.18;2.83;;;;;;;;;;4993377;28;20050;-64
2022/10/08 00:39:30;;;;;;;7.85;2.63;;;;;;;;;;4992906;28;20061;-64
2022/10/08 00:42:01;;;;;;;5.07;2.83;;;;;;;;;;5012546;28;20050;-64
2022/10/08 00:44:49;;;;;;;8.40;3.08;;;;;;;;;;4954020;29;20052;-64
2022/10/08 00:47:31;;;;;;;6.72;2.95;;;;;;;;;;4966600;28;20466;-64
2022/10/08 00:50:14;;;;;;;8.95;3.25;;;;;;;;;;4986913;28;20050;-64
2022/10/08 00:52:49;;;;;;;6.43;2.75;;;;;;;;;;4960088;28;20061;-63
2022/10/08 00:55:21;;;;;;;6.82;2.80;;;;;;;;;;4992884;28;20129;-64
2022/10/08 00:57:52;;;;;;;8.48;3.08;;;;;;;;;;4944681;28;20046;-64
2022/10/08 01:00:25;;;;;;;7.95;2.70;;;;;;;;;;4992730;28;20057;-64
2022/10/08 01:02:57;;;;;;;6.20;2.83;;;;;;;;;;4992477;28;20065;-64
2022/10/08 01:05:37;;;;;;;9.48;2.95;;;;;;;;;;4992795;28;20061;-64
2022/10/08 01:08:42;;;;;;;8.52;3.60;;;;;;;;;;5010240;28;20465;-64
2022/10/08 01:11:38;;;;;;;7.18;2.97;;;;;;;;;;4992495;28;20582;-64
2022/10/08 01:14:29;;;;;;;11.88;3.80;;;;;;;;;;4992378;28;20062;-64
2022/10/08 01:17:07;;;;;;;8.70;3.88;;;;;;;;;;4992269;28;20576;-63
2022/10/08 01:20:14;;;;;;;7.97;3.38;;;;;;;;;;4953492;28;20506;-64
2022/10/08 01:23:03;;;;;;;8.50;3.17;;;;;;;;;;5025788;28;20057;-64
2022/10/08 01:25:40;;;;;;;7.20;3.08;;;;;;;;;;5031729;28;20065;-61
2022/10/08 01:28:34;;;;;;;13.73;3.08;;;;;;;;;;5045099;28;20559;-61
2022/10/08 01:31:42;;;;;;;7.80;3.70;;;;;;;;;;5051507;28;20049;-64
2022/10/08 01:34:27;;;;;;;7.53;3.85;;;;;;;;;;5034938;28;20052;-61
2022/10/08 01:37:00;;;;;;;8.52;3.05;;;;;;;;;;5051379;28;20049;-61
2022/10/08 01:39:32;;;;;;;;;;;;;;;;;;5051817;28;20064;-62
2022/10/08 01:42:05;;;;;;;8.27;3.03;;;;;;;;;;5051344;28;19943;-62
2022/10/08 01:44:47;;;;;;;7.13;3.47;;;;;;;;;;5051207;28;20045;-61
2022/10/08 01:47:22;;;;;;;10.50;3.53;;;;;;;;;;5093039;28;20091;-61
2022/10/08 01:49:56;;;;;;;11.38;3.13;;;;;;;;;;5061435;28;20426;-62
2022/10/08 01:52:39;;;;;;;8.95;3.35;;;;;;;;;;5113762;28;20048;-61
2022/10/08 01:55:23;;;;;;;11.00;3.30;;;;;;;;;;5113633;28;20039;-62
2022/10/08 01:57:59;;;;;;;9.73;2.72;;;;;;;;;;5114009;28;20040;-61
2022/10/08 02:00:33;;;;;;;8.05;2.58;;;;;;;;;;5070450;28;20060;-65
2022/10/08 02:03:04;;;;;;;6.57;2.78;;;;;;;;;;5070752;28;20057;-64
2022/10/08 02:05:39;;;;;;;6.75;3.15;;;;;;;;;;5070500;28;20546;-64
2022/10/08 02:08:11;;;;;;;8.55;3.50;;;;;;;;;;5070807;28;20404;-64
2022/10/08 02:10:42;;;;;;;8.07;2.85;;;;;;;;;;5070621;28;20059;-64
2022/10/08 02:13:13;;;;;;;8.32;2.83;;;;;;;;;;5070559;28;20063;-64
2022/10/08 02:16:03;;;;;;;5.78;2.72;;;;;;;;;;5070731;28;20048;-64
2022/10/08 02:18:46;;;;;;;8.15;3.20;;;;;;;;;;4974742;28;20058;-64
2022/10/08 02:21:23;;;;;;;8.55;3.42;;;;;;;;;;4959001;28;20091;-64
2022/10/08 02:24:16;;;;;;;9.50;3.42;;;;;;;;;;4991214;28;20054;-64
2022/10/08 02:26:54;;;;;;;8.00;3.25;;;;;;;;;;4990786;28;20065;-64
2022/10/08 02:29:53;;;;;;;10.07;3.22;;;;;;;;;;4991195;28;20502;-64
2022/10/08 02:32:35;;;;;;;8.77;3.50;;;;;;;;;;4990913;28;20050;-64
2022/10/08 02:35:18;;;;;;;9.10;3.30;;;;;;;;;;4990829;28;20054;-64
2022/10/08 02:37:59;;;;;;;10.70;3.17;;;;;;;;;;5005535;28;20575;-64
2022/10/08 02:40:32;;;;;;;5.43;2.80;;;;;;;;;;5030154;28;20117;-61
2022/10/08 02:43:08;;;;;;;10.23;3.17;;;;;;;;;;4997080;28;20053;-61
2022/10/08 02:45:45;;;;;;;9.32;3.38;;;;;;;;;;5013534;28;20068;-64
2022/10/08 02:48:24;;;;;;;7.65;3.03;;;;;;;;;;4998935;28;20529;-63
2022/10/08 02:51:00;;;;;;;6.40;3.10;;;;;;;;;;5030099;28;20049;-64
2022/10/08 02:53:31;;;;;;;8.13;3.05;;;;;;;;;;5030040;28;20052;-64
2022/10/08 02:56:05;;;;;;;5.90;2.78;;;;;;;;;;5079756;28;20372;-64
2022/10/08 02:58:36;;;;;;;10.55;3.17;;;;;;;;;;5027110;28;20414;-64
2022/10/08 03:01:14;;;;;;;7.70;3.45;;;;;;;;;;5112895;28;20043;-64
2022/10/08 03:03:52;;;;;;;7.80;3.55;;;;;;;;;;5094891;28;20047;-64
2022/10/08 03:06:23;;;;;;;8.52;3.05;;;;;;;;;;5093614;28;20062;-65
2022/10/08 03:08:57;;;;;;;12.10;3.45;;;;;;;;;;5112780;28;20059;-64
2022/10/08 03:11:29;;;;;;;7.07;3.17;;;;;;;;;;5052721;28;20048;-64
2022/10/08 03:14:03;;;;;;;10.75;3.65;;;;;;;;;;5036293;28;20060;-64
2022/10/08 03:16:41;;;;;;;11.77;4.10;;;;;;;;;;5069777;28;20053;-64
2022/10/08 03:19:14;;;;;;;9.40;4.28;;;;;;;;;;5036422;28;20063;-64
2022/10/08 03:21:47;;;;;;;9.45;3.75;;;;;;;;;;5069648;28;20083;-64
2022/10/08 03:24:18;;;;;;;8.57;3.35;;;;;;;;;;5069331;28;20045;-64
2022/10/08 03:26:48;;;;;;;7.90;3.50;;;;;;;;;;5069496;28;20061;-64
2022/10/08 03:29:18;;;;;;;9.93;3.53;;;;;;;;;;5069464;28;20540;-64
2022/10/08 03:31:49;;;;;;;12.02;3.67;;;;;;;;;;5036425;28;20520;-64
2022/10/08 03:34:20;;;;;;;11.98;3.55;;;;;;;;;;5085734;28;20452;-64
2022/10/08 03:36:50;;;;;;;7.13;3.60;;;;;;;;;;5035977;28;20697;-64
2022/10/08 03:39:20;;;;;;;8.35;3.13;;;;;;;;;;5029232;28;20572;-64
2022/10/08 03:41:51;;;;;;;10.35;4.15;;;;;;;;;;5029534;28;20053;-64
2022/10/08 03:44:22;;;;;;;9.90;3.72;;;;;;;;;;5029552;28;20080;-64
2022/10/08 03:46:53;;;;;;;7.88;3.35;;;;;;;;;;5030970;28;20056;-64
2022/10/08 03:49:23;;;;;;;9.43;3.65;;;;;;;;;;5008703;28;20052;-64
2022/10/08 03:51:53;;;;;;;9.95;4.35;;;;;;;;;;5056771;28;20056;-64
2022/10/08 03:54:23;;;;;;;9.25;3.90;;;;;;;;;;5033005;28;20084;-65
2022/10/08 03:56:53;;;;;;;10.98;3.97;;;;;;;;;;5033273;28;20054;-64
2022/10/08 03:59:23;;;;;;;8.15;3.95;;;;;;;;;;5033113;28;20053;-64
2022/10/08 04:01:53;;;;;;;11.85;3.85;;;;;;;;;;5033548;28;20494;-64
2022/10/08 04:04:23;;;;;;;8.60;3.75;;;;;;;;;;4985123;28;20061;-64
2022/10/08 04:06:54;;;;;;;9.75;3.42;;;;;;;;;;4984936;28;20057;-64
2022/10/08 04:09:23;;;;;;;7.72;3.13;;;;;;;;;;5000243;28;20069;-65
2022/10/08 04:11:53;;;;;;;8.38;3.28;;;;;;;;;;4984380;28;20053;-63
2022/10/08 04:14:23;;;;;;;8.43;4.03;;;;;;;;;;5033046;28;20046;-64
2022/10/08 04:16:54;;;;;;;5.65;3.10;;;;;;;;;;5052062;28;20504;-64
2022/10/08 04:19:24;;;;;;;7.55;3.05;;;;;;;;;;5056215;28;20156;-65
2022/10/08 04:21:54;;;;;;;7.50;3.28;;;;;;;;;;5072891;28;20071;-64
2022/10/08 04:24:24;;;;;;;7.22;2.92;;;;;;;;;;5039183;28;20045;-63
2022/10/08 04:26:55;;;;;;;7.70;3.28;;;;;;;;;;5072427;28;20063;-64
2022/10/08 04:29:25;;;;;;;10.32;4.03;;;;;;;;;;5039239;28;20127;-64
2022/10/08 04:31:56;;;;;;;12.10;3.75;;;;;;;;;;5092251;28;20066;-61
2022/10/08 04:34:26;;;;;;;9.05;3.40;;;;;;;;;;5115574;28;20510;-61
2022/10/08 04:36:56;;;;;;;10.25;3.60;;;;;;;;;;5115529;28;20040;-61
2022/10/08 04:39:26;;;;;;;8.88;3.60;;;;;;;;;;5115287;28;20106;-61
2022/10/08 04:41:56;;;;;;;10.23;3.20;;;;;;;;;;5072111;28;20048;-64
2022/10/08 04:44:26;;;;;;;7.72;3.13;;;;;;;;;;5072336;28;20061;-64
2022/10/08 04:46:56;;;;;;;9.23;3.67;;;;;;;;;;5072315;28;20504;-64
2022/10/08 04:49:28;;;;;;;8.43;3.67;;;;;;;;;;5072279;28;20525;-63
2022/10/08 04:51:59;;;;;;;7.38;3.88;;;;;;;;;;5022085;28;20052;-64
2022/10/08 04:54:29;;;;;;;8.35;2.88;;;;;;;;;;5039377;28;20499;-64
2022/10/08 04:56:59;;;;;;;8.15;3.22;;;;;;;;;;5055333;28;20056;-64
2022/10/08 04:59:28;;;;;;;8.05;3.58;;;;;;;;;;5038877;28;20060;-64
2022/10/08 05:01:59;;;;;;;7.80;3.00;;;;;;;;;;5071961;28;20048;-63
2022/10/08 05:04:29;;;;;;;6.90;3.05;;;;;;;;;;5054754;28;20053;-64
2022/10/08 05:06:59;;;;;;;9.48;3.03;;;;;;;;;;5071942;28;20057;-64
2022/10/08 05:09:29;;;;;;;11.30;3.42;;;;;;;;;;5071926;28;20052;-64
2022/10/08 05:11:59;;;;;;;8.05;3.00;;;;;;;;;;5071736;28;20064;-64
2022/10/08 05:14:28;;;;;;;8.45;2.92;;;;;;;;;;5055101;28;20056;-64
2022/10/08 05:16:58;;;;;;;8.63;2.83;;;;;;;;;;5071758;28;20048;-63
2022/10/08 05:19:30;;;;;;;8.23;2.58;;;;;;;;;;5091801;28;20059;-64
2022/10/08 05:22:00;;;;;;;8.38;2.92;;;;;;;;;;5095423;28;20056;-63
2022/10/08 05:24:30;;;;;;;6.38;2.95;;;;;;;;;;5114582;28;20054;-64
2022/10/08 05:27:00;;;;;;;7.25;3.03;;;;;;;;;;5114472;28;20066;-63
2022/10/08 05:29:30;;;;;;;8.50;3.25;;;;;;;;;;5045994;28;20055;-64
2022/10/08 05:32:00;;;;;;;10.93;2.72;;;;;;;;;;5078938;28;20048;-64
2022/10/08 05:34:30;;;;;;;8.45;2.75;;;;;;;;;;5130146;27;20044;-65
2022/10/08 05:37:00;;;;;;;6.32;2.55;;;;;;;;;;5114271;28;20475;-64
2022/10/08 05:39:30;;;;;;;6.70;2.55;;;;;;;;;;5079014;28;20048;-64
2022/10/08 05:41:59;;;;;;;6.20;2.50;;;;;;;;;;5078296;28;20059;-64
2022/10/08 05:44:29;;;;;;;6.55;2.85;;;;;;;;;;5095462;28;20047;-64
2022/10/08 05:47:05;;;;;;;7.35;2.78;;;;;;;;;;5114201;28;20047;-63
2022/10/08 05:49:35;;;;;;;8.80;2.95;;;;;;;;;;5114258;28;20047;-64
2022/10/08 05:52:05;;;;;;;11.38;2.67;;;;;;;;;;5114013;28;20039;-64
2022/10/08 05:54:35;;;;;;;8.82;2.80;;;;;;;;;;5113892;28;20046;-63
2022/10/08 05:57:05;;;;;;;5.78;3.08;;;;;;;;;;5114007;28;20048;-64
2022/10/08 05:59:36;;;;;;;6.07;2.50;;;;;;;;;;5113746;28;20483;-64
2022/10/08 06:02:06;;;;;;;9.25;2.70;;;;;;;;;;5077858;28;20054;-64
2022/10/08 06:04:36;;;;;;;7.10;2.65;;;;;;;;;;5090885;28;20055;-64
2022/10/08 06:07:06;;;;;;;5.57;2.17;;;;;;;;;;5090985;28;20060;-63
2022/10/08 06:09:35;;;;;;;5.20;2.50;;;;;;;;;;5056722;28;20495;-64
2022/10/08 06:12:08;;;;;;;9.77;2.80;;;;;;;;;;5090933;28;20071;-64
2022/10/08 06:14:39;;;;;;;6.43;2.55;;;;;;;;;;5090739;28;20043;-64
2022/10/08 06:17:09;;;;;;;5.97;2.38;;;;;;;;;;5090653;28;20055;-64
2022/10/08 06:19:39;;;;;;;5.63;1.85;;;;;;;;;;5090846;28;20087;-63
2022/10/08 06:22:10;;;;;;;11.77;2.78;;;;;;;;;;5090754;28;20067;-64
2022/10/08 06:24:40;;;;;;;5.78;2.40;;;;;;;;;;5040279;28;20058;-63
2022/10/08 06:27:10;;;;;;;7.88;2.30;;;;;;;;;;5090413;28;20574;-64
2022/10/08 06:29:41;;;;;;;6.00;3.10;;;;;;;;;;5090456;28;20067;-64
2022/10/08 06:32:10;;;;;;;6.93;2.40;;;;;;;;;;5090628;28;20129;-64
2022/10/08 06:34:40;;;;;;;6.20;2.22;;;;;;;;;;5029776;28;20571;-64
2022/10/08 06:37:10;;;;;;;5.18;2.30;;;;;;;;;;4997490;28;20060;-63
2022/10/08 06:39:40;;;;;;;8.77;2.63;;;;;;;;;;5030237;28;20065;-64
2022/10/08 06:42:16;;;;;;;6.85;2.35;;;;;;;;;;5017235;28;20520;-64
2022/10/08 06:44:46;;;;;;;4.68;1.88;;;;;;;;;;5000643;28;20057;-64
2022/10/08 06:47:16;;;;;;;9.90;2.85;;;;;;;;;;5010363;28;20049;-63
2022/10/08 06:49:46;;;;;;;8.38;2.25;;;;;;;;;;4978236;28;20529;-64
2022/10/08 06:52:16;;;;;;;5.95;2.50;;;;;;;;;;4993885;28;20054;-64
2022/10/08 06:54:45;;;;;;;4.80;2.00;;;;;;;;;;4974054;28;20418;-63
2022/10/08 06:57:15;;;;;;;8.57;2.38;;;;;;;;;;4990706;28;20066;-64
2022/10/08 06:59:45;;;;;;;6.03;2.78;;;;;;;;;;4990757;28;20069;-64
2022/10/08 07:02:15;;;;;;;6.95;2.42;;;;;;;;;;4951806;28;20058;-64
2022/10/08 07:04:45;;;;;;;8.75;2.60;;;;;;;;;;4913366;29;20082;-63
2022/10/08 07:07:15;;;;;;;4.30;2.20;;;;;;;;;;4913877;29;20056;-63
2022/10/08 07:09:45;;;;;;;4.97;2.13;;;;;;;;;;4913959;29;20059;-64
2022/10/08 07:12:14;;;;;;;9.13;2.47;;;;;;;;;;4915841;28;20063;-63
2022/10/08 07:14:44;;;;;;;5.05;1.85;;;;;;;;;;4935763;29;20051;-63
2022/10/08 07:17:14;;;;;;;5.95;2.40;;;;;;;;;;4951819;28;20103;-63
2022/10/08 07:19:45;;;;;;;5.20;2.42;;;;;;;;;;4951866;29;20396;-64
2022/10/08 07:22:15;;;;;;;6.10;2.17;;;;;;;;;;4931233;29;20574;-64
2022/10/08 07:24:44;;;;;;;6.93;2.03;;;;;;;;;;4894480;29;20408;-64
2022/10/08 07:27:15;;;;;;;5.18;2.10;;;;;;;;;;4936307;29;20063;-61
2022/10/08 07:29:45;;;;;;;5.57;1.92;;;;;;;;;;4936607;29;20420;-63
2022/10/08 07:32:16;;;;;;;3.85;1.90;;;;;;;;;;4953211;28;20058;-64
2022/10/08 07:34:46;;;;;;;4.75;2.00;;;;;;;;;;4942394;28;20070;-65
2022/10/08 07:37:16;;;;;;;5.18;2.35;;;;;;;;;;4974922;28;20061;-62
2022/10/08 07:39:46;;;;;;;5.07;2.15;;;;;;;;;;4967429;28;20069;-62
2022/10/08 07:42:17;;;;;;;6.13;2.25;;;;;;;;;;5021090;28;20063;-62
2022/10/08 07:44:48;;;;;;;6.88;2.63;;;;;;;;;;5004055;28;20053;-64
2022/10/08 07:47:18;;;;;;;5.25;2.55;;;;;;;;;;5053395;28;20088;-61
2022/10/08 07:49:48;;;;;;;6.65;2.30;;;;;;;;;;5004000;28;20057;-62
2022/10/08 07:52:18;;;;;;;6.00;2.22;;;;;;;;;;5053323;28;20052;-62
2022/10/08 07:54:48;;;;;;;5.80;2.33;;;;;;;;;;5053276;28;20441;-61
2022/10/08 07:57:18;;;;;;;5.28;2.22;;;;;;;;;;5036663;28;20056;-63
2022/10/08 07:59:48;;;;;;;5.35;2.20;;;;;;;;;;5025000;28;20643;-62
2022/10/08 08:02:18;;;;;;;5.32;2.10;;;;;;;;;;5073055;28;20167;-62
2022/10/08 08:04:47;;;;;;;6.65;2.22;;;;;;;;;;5039748;28;20083;-61
2022/10/08 08:07:17;;;;;;;5.13;2.03;;;;;;;;;;5039527;28;20420;-62
2022/10/08 08:09:47;;;;;;;7.85;2.47;;;;;;;;;;5032898;28;20050;-62
2022/10/08 08:12:17;;;;;;;6.82;2.90;;;;;;;;;;4983570;28;20053;-62
2022/10/08 08:14:47;;;;;;;5.57;2.10;;;;;;;;;;4968148;28;20069;-61
2022/10/08 08:17:17;;;;;;;9.13;2.53;;;;;;;;;;5032758;28;20057;-62
2022/10/08 08:19:47;;;;;;;6.47;2.50;;;;;;;;;;5016724;28;20533;-62
2022/10/08 08:22:18;;;;;;;6.50;2.58;;;;;;;;;;5032773;28;20390;-63
2022/10/08 08:24:48;;;;;;;8.45;3.33;;;;;;;;;;5032807;28;20081;-61
2022/10/08 08:27:18;;;;;;;8.93;2.67;;;;;;;;;;5032424;28;20045;-62
2022/10/08 08:29:48;;;;;;;6.97;2.92;;;;;;;;;;4993080;28;20051;-62
2022/10/08 08:32:18;;;;;;;8.18;2.72;;;;;;;;;;4992843;28;20442;-62
2022/10/08 08:34:53;;;;;;;6.15;2.80;;;;;;;;;;4993169;28;20066;-62
2022/10/08 08:37:24;;;;;;;7.70;2.80;;;;;;;;;;4954250;28;20068;-62
2022/10/08 08:39:54;;;;;;;6.22;3.30;;;;;;;;;;5012619;28;20444;-62
2022/10/08 08:42:42;;;;;;;10.50;2.88;;;;;;;;;;5012365;28;20061;-62
2022/10/08 08:45:17;;;;;;;8.25;2.42;;;;;;;;;;4964428;28;20053;-62
2022/10/08 08:48:31;;;;;;;7.43;3.28;;;;;;;;;;5012645;28;20510;-62
2022/10/08 08:51:03;;;;;;;6.05;2.83;;;;;;;;;;5012485;28;20046;-62
2022/10/08 08:53:33;;;;;;;7.32;3.00;;;;;;;;;;5012413;28;20072;-62
2022/10/08 08:56:07;;;;;;;11.65;3.60;;;;;;;;;;4979524;28;20065;-62
2022/10/08 08:58:59;;;;;;;8.63;3.08;;;;;;;;;;5012188;28;20054;-63
2022/10/08 09:01:39;;;;;;;10.38;3.80;;;;;;;;;;5012258;28;20472;-62
2022/10/08 09:04:42;;;;;;;9.18;3.17;;;;;;;;;;4963824;28;20066;-62
2022/10/08 09:07:20;;;;;;;8.50;3.83;;;;;;;;;;5054487;28;20048;-62
2022/10/08 09:09:54;;;;;;;7.97;3.75;;;;;;;;;;5096005;28;20047;-62
2022/10/08 09:12:32;;;;;;;8.10;3.60;;;;;;;;;;5078366;28;20048;-62
2022/10/08 09:15:13;;;;;;;8.55;3.75;;;;;;;;;;5095422;28;20562;-63
2022/10/08 09:17:45;;;;;;;7.30;3.35;;;;;;;;;;5078178;28;20047;-62
2022/10/08 09:20:17;;;;;;;8.52;3.78;;;;;;;;;;5078872;28;20052;-62
2022/10/08 09:22:50;;;;;;;11.43;4.10;;;;;;;;;;5114470;28;20509;-62
2022/10/08 09:25:27;;;;;;;8.25;4.22;;;;;;;;;;5079161;28;20051;-62
2022/10/08 09:28:04;;;;;;;9.07;3.58;;;;;;;;;;5078448;28;20055;-63
2022/10/08 09:30:43;;;;;;;6.95;3.40;;;;;;;;;;5114513;28;20059;-62
2022/10/08 09:33:17;;;;;;;9.35;4.15;;;;;;;;;;5045108;28;20491;-62
2022/10/08 09:35:53;;;;;;;9.55;4.05;;;;;;;;;;5071045;28;20048;-62
2022/10/08 09:38:29;;;;;;;9.57;4.03;;;;;;;;;;5015101;28;20048;-62
2022/10/08 09:41:19;;;;;;;9.07;3.72;;;;;;;;;;5031619;28;20053;-62
2022/10/08 09:44:14;;;;;;;7.60;3.67;;;;;;;;;;5030860;28;20056;-62
2022/10/08 09:46:46;;;;;;;10.27;4.07;;;;;;;;;;4902724;29;20455;-61
2022/10/08 09:49:34;;;;;;;11.85;3.72;;;;;;;;;;4886992;29;20059;-62
2022/10/08 09:52:15;;;;;;;7.78;3.33;;;;;;;;;;4902532;29;20415;-62
2022/10/08 09:54:52;;;;;;;11.02;3.60;;;;;;;;;;4933906;29;20052;-62
2022/10/08 09:57:23;;;;;;;9.52;2.95;;;;;;;;;;4933664;29;20051;-62
2022/10/08 10:00:01;;;;;;;9.63;3.47;;;;;;;;;;4933803;29;20063;-62
2022/10/08 10:02:35;;;;;;;10.02;3.42;;;;;;;;;;4934282;29;20141;-62
2022/10/08 10:05:15;;;;;;;10.75;3.83;;;;;;;;;;4933618;29;20059;-63
2022/10/08 10:07:46;;;;;;;9.50;4.05;;;;;;;;;;4966553;28;20059;-62
2022/10/08 10:10:19;;;;;;;8.40;3.13;;;;;;;;;;5003017;28;20072;-62
2022/10/08 10:12:55;;;;;;;8.10;3.20;;;;;;;;;;5011048;28;20061;-63
2022/10/08 10:15:51;;;;;;;9.70;3.80;;;;;;;;;;5010958;28;20536;-62
2022/10/08 10:18:28;;;;;;;6.00;3.33;;;;;;;;;;5010926;28;20571;-62
2022/10/08 10:21:07;;;;;;;9.45;3.38;;;;;;;;;;4994333;28;20057;-62
2022/10/08 10:23:57;;;;;;;9.60;3.22;;;;;;;;;;5030822;28;20495;-63
2022/10/08 10:26:34;;;;;;;9.60;3.75;;;;;;;;;;5113378;28;20042;-65
2022/10/08 10:29:20;;;;;;;9.27;3.53;;;;;;;;;;5113123;28;20048;-63
2022/10/08 10:32:04;;;;;;;9.30;3.45;;;;;;;;;;5113069;28;20048;-62
2022/10/08 10:34:39;;;;;;;7.55;2.90;;;;;;;;;;5078408;28;20048;-62
2022/10/08 10:37:32;;;;;;;6.50;3.33;;;;;;;;;;5094027;28;20403;-62
2022/10/08 10:40:28;;;;;;;8.90;3.78;;;;;;;;;;5113009;28;20051;-62
2022/10/08 10:43:13;;;;;;;7.60;3.55;;;;;;;;;;5113248;28;20031;-63
2022/10/08 10:45:51;;;;;;;10.65;4.07;;;;;;;;;;5113075;28;20391;-63
2022/10/08 10:48:21;;;;;;;11.52;4.60;;;;;;;;;;5112846;28;20399;-64
2022/10/08 10:51:04;;;;;;;8.45;3.40;;;;;;;;;;5062092;28;20430;-63
2022/10/08 10:53:54;;;;;;;9.25;3.15;;;;;;;;;;5112971;28;20503;-63
2022/10/08 10:56:33;;;;;;;6.88;2.83;;;;;;;;;;5077055;28;20419;-63
2022/10/08 10:59:31;;;;;;;7.95;3.13;;;;;;;;;;5112669;28;20043;-63
2022/10/08 11:02:16;;;;;;;7.40;3.05;;;;;;;;;;5112865;28;20054;-63
2022/10/08 11:05:21;;;;;;;6.30;2.90;;;;;;;;;;5093853;28;20495;-63
2022/10/08 11:08:12;;;;;;;5.15;2.70;;;;;;;;;;5060660;28;20513;-62
2022/10/08 11:11:02;;;;;;;6.72;2.35;;;;;;;;;;5112717;28;20054;-63
2022/10/08 11:13:51;;;;;;;12.07;2.90;;;;;;;;;;5053004;28;20048;-63
2022/10/08 11:16:39;;;;;;;6.05;2.65;;;;;;;;;;5020147;28;20052;-63
2022/10/08 11:19:35;;;;;;;4.72;2.22;;;;;;;;;;5020125;28;20520;-62
2022/10/08 11:22:19;;;;;;;6.10;2.65;;;;;;;;;;5069500;28;20049;-63
2022/10/08 11:24:58;;;;;;;7.68;2.88;;;;;;;;;;5069578;28;20535;-62
2022/10/08 11:27:47;;;;;;;5.00;2.58;;;;;;;;;;5069311;28;20059;-63
2022/10/08 11:30:23;;;;;;;6.07;2.75;;;;;;;;;;5049244;28;20633;-63
2022/10/08 11:32:56;;;;;;;5.20;2.55;;;;;;;;;;5009955;28;20061;-63
2022/10/08 11:35:31;;;;;;;7.72;3.05;;;;;;;;;;4961527;28;20079;-64
2022/10/08 11:38:08;;;;;;;5.43;2.42;;;;;;;;;;5009735;28;20405;-63
2022/10/08 11:40:43;;;;;;;8.80;3.03;;;;;;;;;;4977265;28;20434;-63
2022/10/08 11:43:35;;;;;;;5.63;2.72;;;;;;;;;;4977371;28;20058;-63
2022/10/08 11:46:27;;;;;;;4.85;2.08;;;;;;;;;;4961240;28;20410;-63
2022/10/08 11:49:10;;;;;;;6.55;2.88;;;;;;;;;;5009733;28;20050;-64
2022/10/08 11:51:50;;;;;;;5.30;2.78;;;;;;;;;;5010232;28;20065;-63
2022/10/08 11:54:30;;;;;;;6.40;2.88;;;;;;;;;;5009530;28;20061;-63
2022/10/08 11:57:18;;;;;;;5.35;2.28;;;;;;;;;;5009902;28;20046;-63
2022/10/08 12:00:05;;;;;;;5.55;1.63;;;;;;;;;;5009854;28;20042;-63
2022/10/08 12:02:42;;;;;;;3.05;1.50;;;;;;;;;;4993125;28;20053;-63
2022/10/08 12:05:21;;;;;;;5.68;1.90;;;;;;;;;;5035956;28;20052;-63
2022/10/08 12:08:01;;;;;;;3.13;1.50;;;;;;;;;;5090643;28;20074;-63
2022/10/08 12:10:39;;;;;;;3.97;1.60;;;;;;;;;;5098162;28;20055;-63
2022/10/08 12:13:09;;;;;;;3.90;1.45;;;;;;;;;;5063716;28;20040;-63
2022/10/08 12:15:45;;;;;;;4.47;1.40;;;;;;;;;;5072979;28;20053;-63
2022/10/08 12:18:22;;;;;;;2.63;1.08;;;;;;;;;;5072788;28;20080;-63
2022/10/08 12:21:19;;;;;;;2.65;1.23;;;;;;;;;;5072929;28;20067;-63
2022/10/08 12:23:49;;;;;;;3.53;1.20;;;;;;;;;;4977213;28;20410;-64
2022/10/08 12:26:19;;;;;;;2.88;0.90;;;;;;;;;;4993340;28;20091;-63
2022/10/08 12:28:51;;;;;;;1.77;0.73;;;;;;;;;;4993353;28;20050;-63
2022/10/08 12:31:40;;;;;;;3.00;1.00;;;;;;;;;;4976989;28;20061;-63
2022/10/08 12:34:18;;;;;;;3.17;1.13;;;;;;;;;;4993381;28;20054;-63
2022/10/08 12:37:02;;;;;;;2.05;1.30;;;;;;;;;;4993089;28;20407;-64
2022/10/08 12:39:43;;;;;;;2.40;0.85;;;;;;;;;;4962552;28;20065;-64
2022/10/08 12:42:27;;;;;;;2.95;1.00;;;;;;;;;;4993537;28;20066;-63
2022/10/08 12:45:11;;;;;;;2.70;1.00;;;;;;;;;;4960734;28;20073;-63
2022/10/08 12:47:57;;;;;;;2.38;0.80;;;;;;;;;;4993165;28;20530;-63
2022/10/08 12:51:15;;;;;;;2.03;0.75;;;;;;;;;;4993211;28;20050;-64
2022/10/08 12:53:47;;;;;;;3.65;0.80;;;;;;;;;;4960400;28;20046;-63
2022/10/08 12:56:24;;;;;;;2.67;0.98;;;;;;;;;;4941368;28;20403;-64
2022/10/08 12:59:02;;;;;;;1.90;1.00;;;;;;;;;;4973852;28;20059;-64
2022/10/08 13:01:33;;;;;;;2.88;0.88;;;;;;;;;;4983934;28;20058;-63
2022/10/08 13:04:24;;;;;;;2.05;0.85;;;;;;;;;;5032152;28;20398;-63
2022/10/08 13:06:55;;;;;;;1.75;0.75;;;;;;;;;;5032073;28;20053;-63
2022/10/08 13:09:34;;;;;;;2.50;0.77;;;;;;;;;;5015735;28;20148;-63
2022/10/08 13:12:05;;;;;;;2.60;0.90;;;;;;;;;;4984776;28;20413;-64
2022/10/08 13:14:38;;;;;;;4.63;0.90;;;;;;;;;;5031988;28;20041;-63
2022/10/08 13:17:27;;;;;;;2.80;0.65;;;;;;;;;;5031596;28;20053;-63
2022/10/08 13:20:18;;;;;;;1.60;0.70;;;;;;;;;;5030543;28;20617;-63
2022/10/08 13:22:49;;;;;;;1.50;0.73;;;;;;;;;;5015342;28;20050;-63
2022/10/08 13:25:48;;;;;;;1.88;0.73;;;;;;;;;;4998828;28;20045;-63
2022/10/08 13:28:23;;;;;;;1.52;0.73;;;;;;;;;;4953342;29;20056;-65
2022/10/08 13:31:22;;;;;;;1.50;0.63;;;;;;;;;;4991258;28;20046;-63
2022/10/08 13:33:53;;;;;;;2.20;0.60;;;;;;;;;;4975772;28;20046;-64
2022/10/08 13:36:24;;;;;;;1.67;1.10;;;;;;;;;;4960148;28;20519;-63
2022/10/08 13:38:54;;;;;;;2.25;0.77;;;;;;;;;;4959647;28;20070;-63
2022/10/08 13:41:24;;;;;;;2.15;0.50;;;;;;;;;;4975717;28;20058;-63
2022/10/08 13:43:53;;;;;;;3.45;0.70;;;;;;;;;;4959573;28;20051;-63
2022/10/08 13:46:24;;;;;;;3.47;0.73;;;;;;;;;;4991806;28;20061;-63
2022/10/08 13:48:53;;;;;;;2.70;1.00;;;;;;;;;;4975562;28;20749;-64
2022/10/08 13:51:24;;;;;;;1.13;0.75;;;;;;;;;;4959665;28;20058;-63
2022/10/08 13:53:54;;;;;;;1.42;0.70;;;;;;;;;;4974899;28;20050;-63
2022/10/08 13:56:25;;;;;;;1.73;0.77;;;;;;;;;;4972223;28;20059;-63
2022/10/08 13:58:54;;;;;;;1.75;0.43;;;;;;;;;;4955988;28;20430;-64
2022/10/08 14:01:25;;;;;;;1.02;0.60;;;;;;;;;;4956205;28;20058;-63
2022/10/08 14:03:55;;;;;;;1.65;0.60;;;;;;;;;;4971164;28;20114;-63
2022/10/08 14:06:25;;;;;;;0.80;0.50;;;;;;;;;;5040511;28;20075;-63
2022/10/08 14:08:55;;;;;;;3.75;0.65;;;;;;;;;;5057123;28;20048;-65
2022/10/08 14:11:25;;;;;;;1.10;0.50;;;;;;;;;;5041848;28;20056;-64
2022/10/08 14:13:56;;;;;;;1.95;0.45;;;;;;;;;;5057154;28;20048;-63
2022/10/08 14:16:27;;;;;;;2.22;0.65;;;;;;;;;;5091034;28;20043;-63
2022/10/08 14:18:57;;;;;;;1.30;1.10;;;;;;;;;;5073880;28;20130;-62
2022/10/08 14:21:31;;;;;;;2.08;0.73;;;;;;;;;;5057228;28;20059;-63
2022/10/08 14:24:01;;;;;;;1.38;0.80;;;;;;;;;;5057192;28;20056;-63
2022/10/08 14:26:31;;;;;;;3.05;0.75;;;;;;;;;;5030402;28;20049;-63
2022/10/08 14:29:02;;;;;;;1.80;0.63;;;;;;;;;;5010338;28;20049;-63
2022/10/08 14:31:32;;;;;;;1.20;0.60;;;;;;;;;;5010268;28;20057;-63
2022/10/08 14:34:02;;;;;;;1.52;0.85;;;;;;;;;;5020532;28;20086;-63
2022/10/08 14:36:38;;;;;;;2.85;0.70;;;;;;;;;;4982430;28;20060;-63
2022/10/08 14:39:09;;;;;;;0.90;0.50;;;;;;;;;;5030277;28;20057;-63
2022/10/08 14:41:41;;;;;;;1.15;0.50;;;;;;;;;;5030261;28;20058;-64
2022/10/08 14:44:15;;;;;;;1.15;0.60;;;;;;;;;;5030248;28;20557;-63
2022/10/08 14:46:50;;;;;;;1.67;0.60;;;;;;;;;;5030178;28;20057;-65
2022/10/08 14:49:22;;;;;;;1.55;0.65;;;;;;;;;;5030318;28;20053;-64
2022/10/08 14:51:52;;;;;;;;;;;;;;;;;;5030525;28;20053;-64
2022/10/08 14:54:22;;;;;;;1.80;0.60;;;;;;;;;;5030046;28;19932;-64
2022/10/08 14:56:52;;;;;;;1.33;0.50;;;;;;;;;;5029971;28;20056;-64
2022/10/08 14:59:22;;;;;;;1.95;0.65;;;;;;;;;;5030076;28;20065;-64
2022/10/08 15:01:52;;;;;;;2.42;0.70;;;;;;;;;;5030086;28;20053;-64
2022/10/08 15:04:22;;;;;;;1.95;0.65;;;;;;;;;;5066031;28;20052;-64
2022/10/08 15:06:52;;;;;;;1.00;0.60;;;;;;;;;;5103298;28;20060;-64
2022/10/08 15:09:23;;;;;;;2.15;0.73;;;;;;;;;;5112759;28;20051;-63
2022/10/08 15:11:52;;;;;;;2.45;0.80;;;;;;;;;;5076981;28;20062;-63
2022/10/08 15:14:23;;;;;;;3.17;0.63;;;;;;;;;;5112577;28;20044;-67
2022/10/08 15:16:53;;;;;;;1.80;0.68;;;;;;;;;;5112624;28;20039;-64
2022/10/08 15:19:23;;;;;;;1.85;0.70;;;;;;;;;;5112488;28;20497;-63
2022/10/08 15:21:53;;;;;;;1.83;0.90;;;;;;;;;;5112759;28;20055;-63
2022/10/08 15:24:23;;;;;;;1.85;0.80;;;;;;;;;;5093593;28;20060;-63
2022/10/08 15:26:53;;;;;;;2.00;0.70;;;;;;;;;;5112636;28;20070;-65
2022/10/08 15:29:23;;;;;;;2.15;0.50;;;;;;;;;;5060977;28;20052;-64
2022/10/08 15:31:53;;;;;;;1.73;0.73;;;;;;;;;;5093877;28;20051;-64